Time;durP1;ratioP1;P1;durP2;ratioP2;P2;SDS_P1;SDS_P2;PMS_P1;PMS_P2;Temp;Humidity;BMP_temperature;BMP_pressure;BME280_temperature;BME280_humidity;BME280_pressure;Samples;Min_cycle;Max_cycle;Signal;HPM_P1;HPM_P2
2023/06/26 01:07:45;;;;;;;10.90;8.30;;;;;;;14.28;75.58;97269.38;102487;1298;640359;-74
2023/06/26 01:10:13;;;;;;;14.60;7.90;;;;;;;14.18;75.19;97267.09;103902;1270;212980;-74
2023/06/26 01:13:29;;;;;;;15.00;9.40;;;;;;;14.07;75.31;97265.11;101861;1295;642860;-75
2023/06/26 01:17:47;;;;;;;9.40;8.40;;;;;;;13.83;75.51;97267.63;101884;1295;636091;-75
2023/06/26 01:22:15;;;;;;;13.50;8.40;;;;;;;13.70;75.73;97264.39;101945;1289;635242;-75
2023/06/26 01:24:54;;;;;;;12.50;8.00;;;;;;;13.59;75.87;97262.02;104450;1268;95869;-75
2023/06/26 01:27:23;;;;;;;9.50;8.30;;;;;;;13.52;75.99;97262.77;104479;1260;97044;-78
2023/06/26 01:29:52;;;;;;;11.20;8.90;;;;;;;13.46;76.09;97262.45;104483;1268;99748;-75
2023/06/26 01:32:20;;;;;;;13.10;9.50;;;;;;;13.40;76.19;97264.46;104924;1261;101475;-76
2023/06/26 01:34:48;;;;;;;19.10;9.60;;;;;;;13.33;76.29;97259.48;104980;1263;143996;-75
2023/06/26 01:37:16;;;;;;;12.70;7.90;;;;;;;13.26;76.24;97259.73;105035;1257;95820;-75
2023/06/26 01:39:44;;;;;;;11.40;7.80;;;;;;;13.20;76.33;97260.39;105014;1259;95834;-75
2023/06/26 01:51:19;;;;;;;14.70;8.70;;;;;;;13.48;75.76;97254.65;102098;1308;636596;-83
2023/06/26 01:53:54;;;;;;;10.60;7.70;;;;;;;13.40;76.06;97254.66;104339;1273;95852;-84
2023/06/26 02:09:21;;;;;;;12.60;9.00;;;;;;;13.56;75.87;97245.18;102149;1292;636159;-82
2023/06/26 02:11:49;;;;;;;11.20;8.90;;;;;;;13.40;76.10;97250.04;104391;1279;96787;-82
2023/06/26 02:14:17;;;;;;;15.50;9.40;;;;;;;13.24;76.18;97250.58;104421;1272;97244;-82
2023/06/26 02:16:44;;;;;;;14.40;8.90;;;;;;;13.10;76.40;97253.72;104417;1288;108012;-82
2023/06/26 02:19:12;;;;;;;12.30;9.20;;;;;;;12.99;76.63;97251.29;104330;1266;102156;-82
2023/06/26 02:21:40;;;;;;;13.40;8.70;;;;;;;12.93;77.06;97245.82;104300;1272;100701;-81
2023/06/26 02:24:08;;;;;;;16.20;9.10;;;;;;;12.93;77.04;97248.66;107981;1262;143153;-82
2023/06/26 02:26:35;;;;;;;10.50;8.20;;;;;;;12.90;77.09;97249.71;108053;1265;93580;-82
2023/06/26 02:29:03;;;;;;;12.80;9.20;;;;;;;12.87;77.22;97249.21;108138;1262;99578;-83
2023/06/26 02:31:31;;;;;;;11.70;8.90;;;;;;;12.79;77.18;97251.56;108203;1261;101682;-83
2023/06/26 02:33:59;;;;;;;12.00;9.30;;;;;;;12.76;77.33;97248.65;108130;1262;99924;-83
2023/06/26 02:36:26;;;;;;;11.70;9.60;;;;;;;12.76;77.42;97252.70;108487;1256;93612;-83
2023/06/26 02:38:54;;;;;;;13.20;9.50;;;;;;;12.73;77.42;97253.77;108500;1256;93479;-83
2023/06/26 02:41:22;;;;;;;10.70;8.80;;;;;;;12.72;77.45;97253.61;108517;1256;100978;-83
2023/06/26 02:43:50;;;;;;;11.70;8.70;;;;;;;12.69;77.52;97254.91;108486;1256;101620;-82
2023/06/26 02:46:17;;;;;;;12.30;9.20;;;;;;;12.66;77.54;97255.25;108454;1258;100273;-83
2023/06/26 02:48:45;;;;;;;11.40;8.50;;;;;;;12.64;77.53;97255.48;108422;1257;93537;-83
2023/06/26 02:51:13;;;;;;;13.40;8.90;;;;;;;12.63;77.45;97252.70;108871;1252;93550;-82
2023/06/26 02:53:40;;;;;;;9.80;8.10;;;;;;;12.64;77.54;97252.27;108830;1253;101962;-82
2023/06/26 02:56:08;;;;;;;11.70;8.70;;;;;;;12.63;77.57;97256.98;108888;1252;101580;-83
2023/06/26 02:58:36;;;;;;;11.40;8.40;;;;;;;12.62;77.55;97257.91;108829;1253;100040;-83
2023/06/26 03:01:03;;;;;;;12.80;7.50;;;;;;;12.60;77.47;97256.98;108826;1253;93558;-83
2023/06/26 03:03:40;;;;;;;12.10;8.60;;;;;;;12.58;77.33;97260.33;108854;1253;93529;-83
2023/06/26 03:06:08;;;;;;;8.20;7.40;;;;;;;12.55;77.38;97256.14;108785;1253;101047;-82
2023/06/26 03:08:38;;;;;;;13.30;8.00;;;;;;;12.54;77.43;97256.98;108853;1253;101538;-83
2023/06/26 03:11:10;;;;;;;13.50;8.30;;;;;;;12.53;77.51;97256.95;108892;1252;98922;-83
2023/06/26 03:13:38;;;;;;;11.10;9.00;;;;;;;12.51;77.66;97251.05;108819;1253;93790;-83
2023/06/26 03:16:06;;;;;;;14.30;8.20;;;;;;;12.50;77.76;97249.56;108868;1253;93565;-83
2023/06/26 03:18:34;;;;;;;11.10;8.40;;;;;;;12.51;77.87;97251.10;108779;1252;101127;-83
2023/06/26 03:23:48;;;;;;;12.20;8.50;;;;;;;12.54;77.74;97252.77;102257;1293;635969;-87
2023/06/26 03:26:16;;;;;;;10.50;8.20;;;;;;;12.51;77.75;97251.59;104789;1276;97053;-83
2023/06/26 03:28:44;;;;;;;14.60;8.90;;;;;;;12.49;77.74;97251.20;104549;1265;95880;-83
2023/06/26 03:31:11;;;;;;;13.70;8.40;;;;;;;12.48;77.80;97254.36;104698;1263;108072;-83
2023/06/26 03:33:39;;;;;;;10.20;8.60;;;;;;;12.46;77.80;97249.86;104790;1265;102213;-83
2023/06/26 03:38:36;;;;;;;10.60;8.50;;;;;;;12.42;77.95;97254.92;102803;1287;636939;-83
2023/06/26 03:41:04;;;;;;;12.80;9.10;;;;;;;12.41;78.00;97251.44;104877;1263;95909;-83
2023/06/26 03:43:31;;;;;;;11.90;8.70;;;;;;;12.41;78.28;97253.14;104928;1273;95917;-83
2023/06/26 03:45:59;;;;;;;9.90;8.30;;;;;;;12.41;78.36;97254.72;104885;1263;100549;-82
2023/06/26 03:48:27;;;;;;;13.10;9.10;;;;;;;12.43;78.50;97257.91;104892;1263;102210;-82
2023/06/26 03:50:55;;;;;;;16.30;8.70;;;;;;;12.44;78.52;97259.98;104490;1267;148730;-82
2023/06/26 03:53:23;;;;;;;13.90;9.10;;;;;;;12.44;78.56;97256.96;105334;1257;95834;-82
2023/06/26 03:55:51;;;;;;;15.90;9.20;;;;;;;12.44;78.71;97259.83;104909;1257;96033;-82
2023/06/26 03:58:19;;;;;;;11.80;9.40;;;;;;;12.45;78.77;97260.31;105405;1260;100275;-82
2023/06/26 04:00:48;;;;;;;10.10;8.60;;;;;;;12.47;78.89;97260.51;105247;1275;102156;-82
2023/06/26 04:04:48;;;;;;;14.30;9.70;;;;;;;12.52;79.01;97267.04;102197;1294;636053;-81
2023/06/26 04:07:16;;;;;;;14.10;9.60;;;;;;;12.53;79.17;97266.37;104371;1267;96004;-82
2023/06/26 04:09:44;;;;;;;14.90;9.60;;;;;;;12.56;79.29;97263.31;104437;1271;97181;-83
2023/06/26 04:12:12;;;;;;;14.40;10.40;;;;;;;12.60;79.26;97263.23;104399;1270;100145;-82
2023/06/26 04:14:39;;;;;;;17.40;11.10;;;;;;;12.65;79.37;97262.65;104386;1265;102255;-82
2023/06/26 04:17:07;;;;;;;12.80;10.10;;;;;;;12.67;79.33;97262.81;104342;1272;100464;-82
2023/06/26 04:19:35;;;;;;;13.60;9.50;;;;;;;12.69;79.57;97260.90;104814;1256;126535;-81
2023/06/26 04:22:03;;;;;;;10.20;8.90;;;;;;;12.71;79.50;97259.63;104827;1260;95899;-82
2023/06/26 04:24:31;;;;;;;15.60;10.00;;;;;;;12.74;79.53;97258.14;104877;1260;100647;-82
2023/06/26 04:26:59;;;;;;;14.90;10.50;;;;;;;12.76;79.51;97255.65;105038;1262;102234;-83
2023/06/26 04:29:27;;;;;;;14.80;9.70;;;;;;;12.80;79.64;97252.93;104763;1261;100842;-82
2023/06/26 04:31:57;;;;;;;13.10;10.00;;;;;;;12.84;79.81;97253.32;104872;1256;95843;-83
2023/06/26 04:34:26;;;;;;;14.30;10.10;;;;;;;12.88;79.84;97255.66;105165;1261;96903;-82
2023/06/26 04:36:55;;;;;;;14.00;11.50;;;;;;;12.92;79.93;97259.34;104804;1257;101249;-82
2023/06/26 04:39:23;;;;;;;12.60;11.10;;;;;;;12.97;80.16;97255.19;104759;1266;102224;-82
2023/06/26 04:41:50;;;;;;;13.70;10.30;;;;;;;13.01;80.05;97254.23;104838;1279;100755;-82
2023/06/26 04:44:18;;;;;;;18.10;11.40;;;;;;;13.06;80.20;97251.14;104820;1257;96778;-83
2023/06/26 04:46:46;;;;;;;12.60;11.10;;;;;;;13.11;80.36;97251.95;105042;1260;97072;-83
2023/06/26 04:49:17;;;;;;;17.00;11.70;;;;;;;13.18;80.46;97254.29;104811;1263;101667;-82
2023/06/26 04:51:45;;;;;;;15.50;10.80;;;;;;;13.23;80.45;97251.13;104735;1263;102338;-82
2023/06/26 04:54:13;;;;;;;15.20;11.90;;;;;;;13.29;80.56;97248.31;105424;1257;100493;-82
2023/06/26 04:56:40;;;;;;;18.80;11.10;;;;;;;13.36;80.63;97247.14;105313;1253;96629;-82
2023/06/26 04:59:12;;;;;;;16.50;11.80;;;;;;;13.43;80.78;97249.03;105182;1255;95894;-83
2023/06/26 05:01:40;;;;;;;14.90;11.60;;;;;;;13.49;80.72;97249.10;105101;1257;108249;-83
2023/06/26 05:04:08;;;;;;;17.70;11.50;;;;;;;13.56;80.82;97249.95;105126;1255;102482;-82
2023/06/26 05:06:37;;;;;;;14.00;11.20;;;;;;;13.62;80.94;97252.55;105120;1257;100611;-83
2023/06/26 05:09:04;;;;;;;13.40;11.90;;;;;;;13.69;81.10;97249.96;105210;1256;96134;-82
2023/06/26 05:11:32;;;;;;;15.50;11.40;;;;;;;13.77;81.19;97249.80;105302;1253;97171;-83
2023/06/26 05:14:00;;;;;;;16.70;12.10;;;;;;;13.83;81.26;97247.85;105094;1252;101703;-83
2023/06/26 05:16:28;;;;;;;15.20;11.80;;;;;;;13.91;81.34;97244.95;105158;1268;102333;-82
2023/06/26 05:18:55;;;;;;;15.70;11.20;;;;;;;14.00;81.53;97242.23;105192;1251;108350;-82
2023/06/26 05:21:24;;;;;;;18.00;12.30;;;;;;;14.08;81.73;97242.56;105100;1255;95842;-82
2023/06/26 05:23:56;;;;;;;18.00;12.40;;;;;;;14.16;81.78;97245.66;105105;1258;97016;-83
2023/06/26 05:26:25;;;;;;;12.70;10.90;;;;;;;14.25;81.69;97246.12;105045;1253;102102;-82
2023/06/26 05:28:53;;;;;;;18.60;12.50;;;;;;;14.33;81.52;97245.13;105107;1255;102192;-82
2023/06/26 05:31:22;;;;;;;15.40;11.70;;;;;;;14.41;81.43;97243.95;105131;1268;100621;-83
2023/06/26 05:33:51;;;;;;;20.00;11.50;;;;;;;14.49;81.35;97242.61;105039;1268;95804;-83
2023/06/26 05:36:21;;;;;;;13.50;11.40;;;;;;;14.59;81.60;97240.58;105309;1253;95934;-83
2023/06/26 05:38:50;;;;;;;15.00;10.90;;;;;;;14.68;81.58;97236.59;105083;1276;101595;-83
2023/06/26 05:41:18;;;;;;;14.40;11.50;;;;;;;14.77;81.48;97237.14;105122;1259;102295;-83
2023/06/26 05:43:46;;;;;;;14.90;11.50;;;;;;;14.86;81.40;97235.52;105007;1258;100808;-82
2023/06/26 05:46:14;;;;;;;13.60;11.00;;;;;;;14.95;81.35;97231.89;105155;1256;96202;-83
2023/06/26 05:48:41;;;;;;;15.80;10.40;;;;;;;15.05;81.10;97232.84;105145;1257;95830;-83
2023/06/26 05:51:10;;;;;;;12.80;10.40;;;;;;;15.14;80.89;97231.38;105125;1255;101730;-84
2023/06/26 05:53:38;;;;;;;15.30;9.90;;;;;;;15.23;80.98;97228.04;108801;1253;101259;-84
2023/06/26 05:56:06;;;;;;;12.90;10.00;;;;;;;15.32;80.96;97228.60;108824;1252;100145;-84
2023/06/26 05:58:34;;;;;;;11.60;9.70;;;;;;;15.42;80.56;97228.66;108811;1252;93827;-84
2023/06/26 06:01:01;;;;;;;15.90;10.00;;;;;;;15.51;80.53;97224.84;108789;1252;93607;-85
2023/06/26 06:03:29;;;;;;;11.40;10.00;;;;;;;15.61;80.34;97223.44;108787;1252;101043;-85
2023/06/26 06:05:57;;;;;;;13.30;9.20;;;;;;;15.73;80.12;97218.79;108817;1252;101663;-84
2023/06/26 06:08:25;;;;;;;12.80;9.90;;;;;;;15.85;80.05;97218.91;108746;1252;109510;-85
2023/06/26 06:10:53;;;;;;;15.00;9.10;;;;;;;15.95;79.98;97215.96;108793;1252;93644;-85
2023/06/26 06:13:21;;;;;;;13.40;9.80;;;;;;;16.07;79.99;97216.25;108545;1255;93719;-85
2023/06/26 06:15:49;;;;;;;17.10;9.40;;;;;;;16.17;79.81;97219.98;108429;1256;101189;-86
2023/06/26 06:18:17;;;;;;;11.90;9.00;;;;;;;16.29;79.75;97220.70;108520;1256;100271;-86
2023/06/26 06:20:44;;;;;;;12.00;8.70;;;;;;;16.39;79.62;97219.36;108301;1258;98809;-86
2023/06/26 06:23:12;;;;;;;13.10;9.00;;;;;;;16.49;79.21;97214.80;108285;1257;93695;-85
2023/06/26 06:25:40;;;;;;;11.80;9.60;;;;;;;16.58;78.60;97215.67;108291;1259;93823;-86
2023/06/26 06:28:08;;;;;;;12.90;8.90;;;;;;;16.67;78.02;97217.86;108312;1258;99903;-86
2023/06/26 06:30:35;;;;;;;15.50;8.50;;;;;;;16.75;77.66;97216.84;108335;1257;100444;-86
2023/06/26 06:33:03;;;;;;;14.40;9.20;;;;;;;16.84;77.73;97214.88;108331;1258;99072;-86
2023/06/26 06:35:31;;;;;;;13.20;7.80;;;;;;;16.96;77.59;97211.77;108300;1257;93675;-86
2023/06/26 06:37:59;;;;;;;10.60;8.40;;;;;;;17.06;76.84;97208.01;108304;1257;94252;-86
2023/06/26 06:40:27;;;;;;;16.20;8.70;;;;;;;17.18;76.77;97208.89;108353;1257;100113;-87
2023/06/26 06:42:54;;;;;;;12.20;8.10;;;;;;;17.30;76.47;97208.30;108313;1257;100501;-85
2023/06/26 06:45:22;;;;;;;10.70;8.80;;;;;;;17.40;76.04;97204.41;108444;1258;98686;-85
2023/06/26 06:47:50;;;;;;;10.40;8.00;;;;;;;17.50;75.85;97204.77;108536;1255;93688;-85
2023/06/26 06:50:18;;;;;;;13.50;8.10;;;;;;;17.63;75.49;97207.27;108520;1255;93662;-85
2023/06/26 06:52:45;;;;;;;14.30;8.20;;;;;;;17.75;75.49;97204.22;108799;1253;99954;-85
2023/06/26 06:55:13;;;;;;;13.30;7.90;;;;;;;17.89;75.01;97203.83;108768;1253;100344;-85
2023/06/26 06:57:41;;;;;;;9.50;7.40;;;;;;;18.03;74.56;97202.73;108848;1252;98626;-85
2023/06/26 07:00:14;;;;;;;10.90;8.00;;;;;;;18.15;74.00;97206.02;108843;1251;94525;-85
2023/06/26 07:02:44;;;;;;;10.00;7.40;;;;;;;18.28;73.41;97208.11;108837;1253;93548;-84
2023/06/26 07:05:13;;;;;;;13.10;8.00;;;;;;;18.41;72.94;97210.86;108846;1252;101097;-85
2023/06/26 07:07:42;;;;;;;11.60;7.70;;;;;;;18.54;72.64;97212.96;108808;1252;101629;-85
2023/06/26 07:10:12;;;;;;;10.70;6.50;;;;;;;18.69;72.63;97213.31;108791;1252;100180;-85
2023/06/26 07:12:40;;;;;;;11.80;7.00;;;;;;;18.83;71.64;97213.30;108845;1252;93592;-86
2023/06/26 07:15:08;;;;;;;15.80;7.60;;;;;;;18.94;71.20;97210.39;108877;1251;93430;-86
2023/06/26 07:17:37;;;;;;;10.00;7.30;;;;;;;19.05;70.94;97211.07;108835;1252;99371;-85
2023/06/26 07:20:06;;;;;;;11.40;7.30;;;;;;;19.16;70.22;97211.52;108850;1252;100401;-87
2023/06/26 07:22:40;;;;;;;10.30;7.20;;;;;;;19.26;69.82;97210.23;108792;1253;99429;-85
2023/06/26 07:25:09;;;;;;;11.30;7.00;;;;;;;19.39;69.70;97205.66;108847;1253;93840;-87
2023/06/26 07:27:38;;;;;;;9.70;7.20;;;;;;;19.53;70.03;97203.65;108900;1251;93449;-86
2023/06/26 07:30:08;;;;;;;12.20;6.50;;;;;;;19.66;69.64;97203.11;108941;1252;100066;-86
2023/06/26 07:32:36;;;;;;;8.70;6.40;;;;;;;19.77;68.64;97204.11;108817;1253;101554;-86
2023/06/26 07:35:05;;;;;;;9.30;5.80;;;;;;;19.86;68.25;97200.04;108756;1253;99010;-86
2023/06/26 07:37:33;;;;;;;7.90;5.90;;;;;;;19.95;67.05;97201.34;108769;1253;93571;-84
2023/06/26 07:40:02;;;;;;;7.20;5.80;;;;;;;20.05;66.72;97202.97;108860;1251;93833;-84
2023/06/26 07:42:29;;;;;;;7.60;5.40;;;;;;;20.16;65.98;97204.65;108856;1253;99941;-85
2023/06/26 07:44:57;;;;;;;7.40;5.40;;;;;;;20.26;65.19;97204.08;108802;1252;100053;-86
2023/06/26 07:47:25;;;;;;;8.80;6.20;;;;;;;20.37;64.65;97205.00;108838;1253;97918;-87
2023/06/26 07:49:53;;;;;;;7.00;5.10;;;;;;;20.50;64.83;97205.08;108845;1253;93671;-86
2023/06/26 07:52:20;;;;;;;6.60;5.30;;;;;;;20.64;64.71;97201.45;108912;1253;93623;-86
2023/06/26 07:54:48;;;;;;;9.00;5.80;;;;;;;20.76;64.53;97203.39;108843;1252;100774;-85
2023/06/26 07:57:16;;;;;;;7.20;5.30;;;;;;;20.89;63.36;97203.09;108874;1253;101551;-86
2023/06/26 07:59:44;;;;;;;6.60;5.10;;;;;;;21.03;62.33;97201.20;108801;1252;98955;-85
2023/06/26 08:02:11;;;;;;;8.20;5.50;;;;;;;21.27;61.88;97199.66;108834;1253;93498;-86
2023/06/26 08:04:39;;;;;;;7.50;5.20;;;;;;;21.62;61.56;97197.98;108815;1253;93997;-87
2023/06/26 08:07:07;;;;;;;7.30;4.90;;;;;;;22.06;61.11;97196.56;108798;1253;100294;-84
2023/06/26 08:09:35;;;;;;;8.20;4.60;;;;;;;22.54;60.36;97193.02;108861;1253;100194;-87
2023/06/26 08:12:03;;;;;;;6.50;4.60;;;;;;;23.00;60.18;97195.45;108810;1253;99143;-88
2023/06/26 08:14:31;;;;;;;5.80;4.70;;;;;;;23.40;59.35;97200.04;108857;1253;94505;-88
2023/06/26 08:16:59;;;;;;;7.90;5.20;;;;;;;23.83;58.50;97194.79;108862;1251;94165;-88
2023/06/26 08:19:27;;;;;;;6.10;4.80;;;;;;;24.30;57.21;97191.18;108810;1253;101416;-88
2023/06/26 08:21:55;;;;;;;5.70;4.60;;;;;;;24.75;56.27;97192.73;108892;1252;100356;-86
2023/06/26 08:24:23;;;;;;;6.90;4.50;;;;;;;25.19;55.55;97192.36;108838;1251;98444;-87
2023/06/26 08:26:51;;;;;;;6.20;4.60;;;;;;;25.48;55.10;97191.40;108797;1253;94592;-85
2023/06/26 08:29:18;;;;;;;10.80;5.10;;;;;;;25.82;53.99;97191.88;108847;1252;94313;-85
2023/06/26 08:31:46;;;;;;;5.20;4.70;;;;;;;26.06;52.76;97189.92;108872;1253;100912;-85
2023/06/26 08:34:14;;;;;;;4.90;4.40;;;;;;;26.43;52.13;97188.90;108829;1253;100482;-85
2023/06/26 08:36:42;;;;;;;5.80;4.50;;;;;;;26.86;51.60;97188.72;108848;1252;99057;-83
2023/06/26 08:39:09;;;;;;;6.50;4.30;;;;;;;27.24;51.01;97187.55;108844;1252;94230;-83
2023/06/26 08:41:44;;;;;;;7.70;4.40;;;;;;;27.59;49.88;97191.66;108798;1253;94251;-86
2023/06/26 08:44:12;;;;;;;4.70;4.20;;;;;;;27.97;48.74;97186.97;108901;1252;101759;-86
2023/06/26 08:46:41;;;;;;;5.50;4.10;;;;;;;28.31;48.57;97183.81;108860;1253;100214;-86
2023/06/26 08:49:21;;;;;;;4.50;4.00;;;;;;;28.58;48.21;97179.89;108899;1253;98981;-88
2023/06/26 08:51:57;;;;;;;6.40;4.10;;;;;;;28.59;47.30;97181.55;108825;1253;94254;-87
2023/06/26 08:54:32;;;;;;;4.10;3.70;;;;;;;28.22;46.96;97179.59;108833;1253;94291;-86
2023/06/26 08:57:01;;;;;;;6.30;3.90;;;;;;;27.98;46.64;97180.67;108710;1253;100889;-87
2023/06/26 08:59:29;;;;;;;4.80;4.00;;;;;;;27.93;46.16;97183.48;108865;1252;100333;-86
2023/06/26 09:01:57;;;;;;;4.60;4.20;;;;;;;27.76;46.15;97185.10;108887;1252;99867;-87
2023/06/26 09:04:26;;;;;;;4.70;4.10;;;;;;;27.55;46.45;97182.52;108855;1251;94248;-87
2023/06/26 09:07:00;;;;;;;6.30;4.80;;;;;;;27.37;46.65;97179.95;108860;1252;94595;-87
2023/06/26 09:09:29;;;;;;;4.40;3.90;;;;;;;27.42;46.69;97174.39;108895;1253;101222;-87
2023/06/26 09:11:56;;;;;;;6.30;4.20;;;;;;;27.49;46.79;97173.77;108824;1252;100119;-86
2023/06/26 09:14:24;;;;;;;8.90;4.40;;;;;;;27.32;46.16;97169.16;108825;1253;99030;-87
2023/06/26 09:16:52;;;;;;;4.20;3.80;;;;;;;27.14;45.85;97165.73;108471;1254;94563;-86
2023/06/26 09:19:20;;;;;;;6.90;4.10;;;;;;;27.14;45.96;97167.33;108566;1254;94632;-87
2023/06/26 09:21:51;;;;;;;5.10;3.70;;;;;;;27.35;46.10;97166.48;108534;1255;100980;-87
2023/06/26 09:24:19;;;;;;;4.50;4.10;;;;;;;27.72;45.09;97168.02;108467;1255;100381;-85
2023/06/26 09:26:48;;;;;;;6.10;4.50;;;;;;;28.21;44.48;97163.52;108543;1255;107860;-87
2023/06/26 09:29:16;;;;;;;6.00;4.10;;;;;;;28.55;44.05;97156.16;108285;1259;94339;-87
2023/06/26 09:31:45;;;;;;;4.40;4.00;;;;;;;28.68;43.23;97151.98;108321;1259;94295;-87
2023/06/26 09:34:13;;;;;;;4.10;3.80;;;;;;;29.10;43.32;97159.31;108308;1257;100939;-86
2023/06/26 09:36:45;;;;;;;4.70;3.90;;;;;;;29.38;42.70;97161.85;108344;1257;100330;-85
2023/06/26 09:39:14;;;;;;;4.30;3.80;;;;;;;29.65;41.69;97162.38;108243;1259;98782;-87
2023/06/26 09:41:43;;;;;;;5.50;3.80;;;;;;;29.96;41.59;97161.98;108234;1258;94312;-86
2023/06/26 09:44:13;;;;;;;5.60;3.70;;;;;;;30.21;40.57;97154.77;108313;1259;94241;-87
2023/06/26 09:46:46;;;;;;;5.90;4.00;;;;;;;30.47;40.02;97152.61;108339;1257;101289;-87
2023/06/26 09:49:14;;;;;;;6.90;4.50;;;;;;;30.68;40.31;97148.17;108305;1257;100087;-88
2023/06/26 09:51:43;;;;;;;4.00;3.60;;;;;;;30.83;39.77;97148.35;108304;1257;99015;-87
2023/06/26 09:54:11;;;;;;;6.70;3.70;;;;;;;31.09;39.01;97148.73;108334;1256;94349;-85
2023/06/26 09:56:39;;;;;;;4.70;3.50;;;;;;;31.38;38.60;97143.48;108293;1257;94323;-87
2023/06/26 09:59:07;;;;;;;4.20;3.80;;;;;;;31.50;37.90;97146.86;108322;1258;100761;-88
2023/06/26 10:01:38;;;;;;;4.30;3.90;;;;;;;31.36;37.72;97145.96;108519;1256;100226;-88
2023/06/26 10:04:09;;;;;;;7.50;3.60;;;;;;;31.19;38.14;97148.56;108549;1256;99156;-89
2023/06/26 10:06:47;;;;;;;4.00;3.60;;;;;;;31.18;38.46;97149.56;108492;1255;94335;-88
2023/06/26 10:09:17;;;;;;;4.30;3.90;;;;;;;30.71;38.01;97145.89;108493;1256;94408;-88
2023/06/26 10:11:56;;;;;;;4.40;3.90;;;;;;;30.00;38.08;97147.48;108546;1255;100929;-87
2023/06/26 10:14:28;;;;;;;4.00;3.30;;;;;;;29.42;38.04;97144.17;108469;1256;100213;-87
2023/06/26 10:17:00;;;;;;;4.30;3.50;;;;;;;29.23;38.01;97142.03;108386;1258;99032;-87
2023/06/26 10:19:29;;;;;;;7.00;4.30;;;;;;;29.40;38.08;97134.52;108533;1254;94719;-88
2023/06/26 10:21:59;;;;;;;5.20;4.40;;;;;;;29.73;38.33;97131.71;108541;1254;94614;-88
2023/06/26 10:24:32;;;;;;;8.90;4.30;;;;;;;30.11;38.04;97129.66;108397;1256;100787;-87
2023/06/26 10:27:08;;;;;;;3.70;3.40;;;;;;;30.44;37.56;97131.29;108285;1256;100327;-86
2023/06/26 10:29:37;;;;;;;4.90;3.80;;;;;;;30.67;37.06;97127.36;108298;1256;99094;-87
2023/06/26 10:32:07;;;;;;;4.80;3.90;;;;;;;30.57;36.50;97126.77;108456;1256;94269;-89
2023/06/26 10:34:36;;;;;;;4.50;3.90;;;;;;;30.26;36.10;97123.60;108281;1258;94381;-87
2023/06/26 10:37:05;;;;;;;5.00;4.00;;;;;;;29.78;36.49;97118.93;108318;1259;101429;-86
2023/06/26 10:40:00;;;;;;;6.60;3.80;;;;;;;29.36;36.62;97116.02;108252;1259;101571;-87
2023/06/26 10:42:40;;;;;;;7.50;4.20;;;;;;;29.11;36.63;97114.49;108266;1258;98791;-84
2023/06/26 10:45:15;;;;;;;4.00;3.60;;;;;;;29.20;36.59;97113.17;108271;1259;95682;-86
2023/06/26 10:47:46;;;;;;;4.40;3.40;;;;;;;29.51;36.65;97114.28;108302;1259;94312;-86
2023/06/26 10:50:24;;;;;;;7.30;3.40;;;;;;;29.78;36.70;97108.91;108280;1259;102630;-84
2023/06/26 10:53:20;;;;;;;4.60;3.30;;;;;;;29.97;36.70;97104.68;108264;1259;101652;-85
2023/06/26 10:56:05;;;;;;;5.00;4.30;;;;;;;30.25;36.56;97103.98;108213;1259;99186;-84
2023/06/26 10:58:35;;;;;;;6.20;4.10;;;;;;;30.43;36.21;97102.44;108376;1257;94371;-85
2023/06/26 11:01:11;;;;;;;4.40;3.90;;;;;;;30.58;35.32;97101.61;108320;1257;94677;-84
2023/06/26 11:03:41;;;;;;;4.20;3.80;;;;;;;30.71;35.58;97104.27;108336;1257;100368;-86
2023/06/26 11:06:21;;;;;;;4.50;3.90;;;;;;;30.86;35.03;97103.79;108557;1253;100346;-86
2023/06/26 11:08:50;;;;;;;6.30;4.40;;;;;;;30.99;34.72;97103.41;108689;1254;98748;-84
2023/06/26 11:11:18;;;;;;;5.20;3.90;;;;;;;31.15;34.31;97101.60;108728;1253;95088;-86
2023/06/26 11:13:48;;;;;;;4.30;3.90;;;;;;;31.29;33.99;97102.17;108412;1261;94318;-85
2023/06/26 11:16:16;;;;;;;4.30;3.90;;;;;;;31.35;33.87;97103.33;108353;1259;101297;-86
2023/06/26 11:18:46;;;;;;;4.40;3.70;;;;;;;31.39;33.75;97102.18;108356;1258;100295;-86
2023/06/26 11:21:17;;;;;;;4.00;3.60;;;;;;;31.54;34.37;97102.84;108391;1258;98858;-86
2023/06/26 11:23:47;;;;;;;4.60;4.10;;;;;;;31.54;34.75;97099.95;108186;1260;94391;-85
2023/06/26 11:26:21;;;;;;;5.00;4.00;;;;;;;31.59;34.47;97100.75;108205;1261;94228;-85
2023/06/26 11:28:54;;;;;;;4.50;4.00;;;;;;;31.52;35.12;97092.11;108252;1260;111053;-86
2023/06/26 11:31:26;;;;;;;4.90;4.00;;;;;;;31.45;35.00;97089.42;108244;1260;100364;-85
2023/06/26 11:33:56;;;;;;;6.50;5.30;;;;;;;31.53;34.54;97093.16;108202;1260;99025;-85
2023/06/26 11:36:26;;;;;;;6.80;4.00;;;;;;;31.67;34.13;97093.52;108028;1262;94923;-87
2023/06/26 11:38:56;;;;;;;5.60;4.10;;;;;;;31.79;33.49;97094.96;108078;1261;94315;-85
2023/06/26 11:41:33;;;;;;;7.10;4.10;;;;;;;31.89;33.05;97092.61;107998;1261;101318;-86
2023/06/26 11:44:08;;;;;;;5.10;4.40;;;;;;;32.00;32.36;97090.56;108043;1261;100157;-86
2023/06/26 11:46:37;;;;;;;4.60;3.90;;;;;;;32.02;32.60;97090.39;108247;1258;99193;-85
2023/06/26 11:49:08;;;;;;;3.90;3.50;;;;;;;31.96;32.36;97090.80;108283;1259;94491;-84
2023/06/26 11:51:37;;;;;;;3.80;3.50;;;;;;;32.01;32.83;97091.16;108216;1259;95302;-82
2023/06/26 11:54:05;;;;;;;4.50;4.10;;;;;;;32.05;32.88;97091.29;108169;1264;102550;-83
2023/06/26 11:56:33;;;;;;;4.10;3.70;;;;;;;32.12;33.22;97089.80;108272;1259;100390;-84
2023/06/26 11:59:02;;;;;;;4.40;4.00;;;;;;;31.95;33.82;97092.77;108201;1264;98416;-83
2023/06/26 12:01:34;;;;;;;5.10;4.40;;;;;;;31.68;33.37;97092.41;108194;1260;94270;-84
2023/06/26 12:04:07;;;;;;;4.60;4.20;;;;;;;31.31;33.69;97093.02;108229;1260;94282;-84
2023/06/26 12:06:38;;;;;;;5.40;4.40;;;;;;;30.90;33.88;97092.23;108243;1260;101334;-84
2023/06/26 12:09:16;;;;;;;4.70;4.10;;;;;;;30.72;34.06;97088.77;108354;1257;109269;-83
2023/06/26 12:11:47;;;;;;;4.50;4.10;;;;;;;30.57;34.04;97086.27;108315;1257;98742;-84
2023/06/26 12:14:15;;;;;;;9.20;4.30;;;;;;;30.38;34.51;97079.54;108285;1257;94269;-83
2023/06/26 12:16:43;;;;;;;4.40;4.00;;;;;;;30.31;34.24;97076.90;108369;1260;94222;-84
2023/06/26 12:19:11;;;;;;;5.70;4.30;;;;;;;30.14;33.84;97083.41;108397;1257;101476;-83
2023/06/26 12:21:39;;;;;;;4.70;4.20;;;;;;;29.96;34.18;97083.88;108456;1260;101770;-83
2023/06/26 12:24:09;;;;;;;7.00;4.10;;;;;;;29.75;34.36;97084.41;108322;1259;98983;-82
2023/06/26 12:26:37;;;;;;;5.10;4.30;;;;;;;29.51;34.58;97081.48;108466;1254;94639;-82
2023/06/26 12:29:11;;;;;;;5.00;4.40;;;;;;;29.28;34.61;97078.20;108507;1256;94653;-83
2023/06/26 12:31:47;;;;;;;4.50;3.90;;;;;;;29.04;34.89;97073.66;108728;1251;102320;-83
2023/06/26 12:34:18;;;;;;;5.80;4.40;;;;;;;29.02;35.38;97071.10;108830;1251;100611;-84
2023/06/26 12:36:50;;;;;;;4.70;4.30;;;;;;;29.19;35.30;97071.10;108542;1254;99006;-85
2023/06/26 12:39:20;;;;;;;7.60;4.50;;;;;;;29.37;35.33;97071.25;108171;1258;95161;-82
2023/06/26 12:41:56;;;;;;;5.30;4.50;;;;;;;29.41;34.58;97072.11;108182;1263;94664;-83
2023/06/26 12:44:28;;;;;;;4.60;4.20;;;;;;;29.26;34.42;97070.58;108223;1260;102608;-84
2023/06/26 12:47:02;;;;;;;4.90;3.80;;;;;;;29.02;34.21;97065.65;108161;1260;108376;-83
2023/06/26 12:49:32;;;;;;;8.90;4.20;;;;;;;28.82;34.77;97060.17;108171;1260;98897;-84
2023/06/26 12:52:00;;;;;;;4.90;4.30;;;;;;;28.82;35.16;97060.90;108206;1260;94500;-83
2023/06/26 12:54:29;;;;;;;6.80;4.10;;;;;;;28.97;35.03;97053.56;108074;1266;94757;-84
2023/06/26 12:56:57;;;;;;;3.80;3.50;;;;;;;29.23;35.06;97055.17;108067;1263;101474;-84
2023/06/26 12:59:24;;;;;;;6.20;4.30;;;;;;;29.48;34.77;97051.83;108066;1263;100719;-83
2023/06/26 13:01:52;;;;;;;6.20;4.70;;;;;;;29.58;34.72;97048.46;108037;1264;99126;-84
2023/06/26 13:04:20;;;;;;;5.20;4.50;;;;;;;29.32;35.01;97052.09;108032;1264;94599;-83
2023/06/26 13:06:48;;;;;;;4.70;4.00;;;;;;;29.13;34.96;97049.85;108039;1264;94374;-82